Jungo, Nevada
Current Conditions -  °F | °C
As of 7:56 PM on Friday 28 Nov 2014 (Local Time) from KWMC Reporting Station
Haze Haze  
Wind Chill: 47°   Ceiling: Unl
Heat Index: 47°   Visibility: 5mi
Dew Point:   Wind: 0mph
Humidity: 14%   Direction: NA
Pressure: 29.79"   Gusts: NA
Location:  41.1353°N, 118.186°W
Report Text: KWMC 290356Z AUTO 00000KT 5SM HZ CLR 08/M18 A2979 RMK AO2 SLP076 T00831178
Loading
Personal Weather Stations






























Interactive Weather Map New forecast layout! Learn more

10-Day Weather Forecast

Advertisements
Track Severe Weather on mobile